createdAt,value
2019-02-20T00:02:01.377Z,73.12
2019-02-20T00:07:07.003Z,72.90
2019-02-20T00:12:11.357Z,72.72
2019-02-20T00:17:15.706Z,72.24
2019-02-20T00:22:20.062Z,72.67
2019-02-20T00:27:24.416Z,73.02
2019-02-20T00:32:28.777Z,73.76
2019-02-20T00:37:33.112Z,74.27
2019-02-20T00:42:37.459Z,74.23
2019-02-20T00:47:52.446Z,74.23
2019-02-20T00:52:58.468Z,73.17
2019-02-20T00:58:02.819Z,74.37
2019-02-20T01:03:07.212Z,73.47
2019-02-20T01:08:11.637Z,73.66
2019-02-20T01:13:15.986Z,73.00
2019-02-20T01:18:20.364Z,73.34
2019-02-20T01:23:24.754Z,73.18
2019-02-20T01:28:29.114Z,73.13
2019-02-20T01:33:33.486Z,73.14
2019-02-20T01:38:38.618Z,72.51
2019-02-20T01:43:42.970Z,71.53
2019-02-20T01:48:47.326Z,72.38
2019-02-20T01:53:51.772Z,72.98
2019-02-20T01:58:56.117Z,73.34
2019-02-20T02:04:00.547Z,74.00
2019-02-20T02:09:06.840Z,73.92
2019-02-20T02:14:12.189Z,74.49
2019-02-20T02:19:16.699Z,73.99
2019-02-20T02:24:21.066Z,74.36
2019-02-20T02:29:25.499Z,73.71
2019-02-20T02:34:29.826Z,74.25
2019-02-20T02:39:34.212Z,73.70
2019-02-20T02:44:38.596Z,73.94
2019-02-20T02:49:42.954Z,74.63
2019-02-20T02:54:47.354Z,73.72
2019-02-20T02:59:51.817Z,74.17
2019-02-20T03:04:57.240Z,74.70
2019-02-20T03:10:01.607Z,74.71
2019-02-20T03:15:09.383Z,75.34
2019-02-20T03:20:13.743Z,75.25
2019-02-20T03:25:18.202Z,74.82
2019-02-20T03:30:22.557Z,74.79
2019-02-20T03:35:26.957Z,74.18
2019-02-20T03:40:31.362Z,74.08
2019-02-20T03:45:36.221Z,73.90
2019-02-20T03:50:40.621Z,74.10
2019-02-20T03:55:44.986Z,74.56
2019-02-20T04:00:49.357Z,73.97
2019-02-20T04:05:53.736Z,74.47
2019-02-20T04:10:58.110Z,74.49
2019-02-20T04:16:02.542Z,74.99
2019-02-20T04:21:06.902Z,74.85
2019-02-20T04:26:11.254Z,74.33
2019-02-20T04:31:15.644Z,74.75
2019-02-20T04:36:20.026Z,75.19
2019-02-20T04:41:24.429Z,75.77
2019-02-20T04:46:28.777Z,76.03
2019-02-20T04:51:33.161Z,75.87
2019-02-20T04:56:37.515Z,73.80
2019-02-20T05:01:41.876Z,74.97
2019-02-20T05:06:46.253Z,75.07
2019-02-20T05:11:50.670Z,75.70
2019-02-20T05:16:55.081Z,76.53
2019-02-20T05:21:59.584Z,75.64
2019-02-20T05:27:04.035Z,77.28
2019-02-20T05:32:08.408Z,76.25
2019-02-20T05:37:12.771Z,76.12
2019-02-20T05:42:18.274Z,75.73
2019-02-20T05:47:22.560Z,74.90
2019-02-20T05:52:26.916Z,75.11
2019-02-20T05:57:31.298Z,74.97
2019-02-20T06:02:35.687Z,73.16
2019-02-20T06:07:40.075Z,73.85
2019-02-20T06:12:44.472Z,72.94
2019-02-20T06:17:48.734Z,72.29
2019-02-20T06:22:53.137Z,72.94
2019-02-20T06:27:57.491Z,72.47
2019-02-20T06:33:02.157Z,72.02
2019-02-20T06:38:06.559Z,71.58
2019-02-20T06:43:10.952Z,71.57
2019-02-20T06:48:16.393Z,71.39
2019-02-20T06:53:20.789Z,71.38
2019-02-20T06:58:25.177Z,71.38
2019-02-20T07:03:29.741Z,71.39
2019-02-20T07:08:46.253Z,71.65
2019-02-20T07:14:02.410Z,71.29
2019-02-20T07:19:30.727Z,72.09
2019-02-20T07:24:47.484Z,71.12
2019-02-20T07:30:02.982Z,71.21
2019-02-20T07:35:08.785Z,70.89
2019-02-20T07:40:14.257Z,70.55
2019-02-20T07:45:18.828Z,70.64
2019-02-20T07:50:23.299Z,70.98
2019-02-20T07:55:27.709Z,70.84
2019-02-20T08:00:32.060Z,69.59
2019-02-20T08:05:36.429Z,69.94
2019-02-20T08:10:40.788Z,70.65
2019-02-20T08:15:46.222Z,69.77
2019-02-20T08:20:50.577Z,69.41
2019-02-20T08:25:55.350Z,69.30
2019-02-20T08:30:59.864Z,69.51
2019-02-20T08:36:04.235Z,70.13
2019-02-20T08:41:08.658Z,69.92
2019-02-20T08:46:13.069Z,69.47
2019-02-20T08:51:17.429Z,69.71
2019-02-20T08:56:21.794Z,69.72
2019-02-20T09:01:26.263Z,69.70
2019-02-20T09:06:30.528Z,69.44
2019-02-20T09:11:34.929Z,69.79
2019-02-20T09:16:39.292Z,68.62
2019-02-20T09:21:43.998Z,68.37
2019-02-20T09:26:49.325Z,68.23
2019-02-20T09:31:53.711Z,67.98
2019-02-20T09:36:58.116Z,67.67
2019-02-20T09:42:02.789Z,67.55
2019-02-20T09:52:10.490Z,67.39
2019-02-20T09:57:14.931Z,65.94
2019-02-20T10:02:19.323Z,66.55
2019-02-20T10:07:23.707Z,65.46
2019-02-20T10:12:29.898Z,65.28
2019-02-20T10:17:34.436Z,65.34
2019-02-20T10:22:39.545Z,65.18
2019-02-20T10:27:44.014Z,64.77
2019-02-20T10:32:49.455Z,64.57
2019-02-20T10:37:53.834Z,63.92
2019-02-20T10:42:58.179Z,63.80
2019-02-20T10:48:02.540Z,63.74
2019-02-20T10:53:07.115Z,63.89
2019-02-20T10:58:11.691Z,63.59
2019-02-20T11:03:16.626Z,63.02
2019-02-20T11:08:21.728Z,62.89
2019-02-20T11:13:26.598Z,63.22
2019-02-20T11:18:31.410Z,62.61
2019-02-20T11:23:35.984Z,61.58
2019-02-20T11:28:40.382Z,61.88
2019-02-20T11:33:44.821Z,61.87
2019-02-20T11:38:49.208Z,61.57
2019-02-20T11:43:53.610Z,60.96
2019-02-20T11:48:58.414Z,60.60
2019-02-20T11:54:03.029Z,60.24
2019-02-20T11:59:07.429Z,60.29
2019-02-20T12:04:11.806Z,60.18
2019-02-20T12:09:16.462Z,60.18
2019-02-20T12:14:24.030Z,60.45
2019-02-20T12:19:26.971Z,59.88
2019-02-20T12:24:32.858Z,61.11
2019-02-20T12:29:37.490Z,59.87
2019-02-20T12:34:41.863Z,59.50
2019-02-20T12:39:46.250Z,59.55
2019-02-20T12:44:50.639Z,59.18
2019-02-20T12:49:55.007Z,58.45
2019-02-20T12:54:59.392Z,58.63
2019-02-20T13:00:05.770Z,58.39
2019-02-20T13:05:11.854Z,58.21
2019-02-20T13:10:16.282Z,57.50
2019-02-20T13:15:20.949Z,56.81
2019-02-20T13:20:25.321Z,56.63
2019-02-20T13:25:29.696Z,55.80
2019-02-20T13:30:34.054Z,56.62
2019-02-20T13:35:38.481Z,55.77
2019-02-20T13:40:42.844Z,56.00
2019-02-20T13:45:47.313Z,56.00
2019-02-20T13:50:51.759Z,57.08
2019-02-20T13:55:56.275Z,56.66
2019-02-20T14:01:01.034Z,56.79
2019-02-20T14:06:05.547Z,56.38
2019-02-20T14:11:09.966Z,56.07
2019-02-20T14:16:14.920Z,56.05
2019-02-20T14:21:19.433Z,57.42
2019-02-20T14:26:30.565Z,57.84
2019-02-20T14:31:35.006Z,57.97
2019-02-20T14:36:39.434Z,58.79
2019-02-20T14:41:44.049Z,58.61
2019-02-20T14:46:48.420Z,58.37
2019-02-20T14:51:52.840Z,58.82
2019-02-20T14:56:57.192Z,58.53
2019-02-20T15:02:01.594Z,58.16
2019-02-20T15:07:05.968Z,57.93
2019-02-20T15:12:10.419Z,58.40
2019-02-20T15:17:14.972Z,59.31
2019-02-20T15:22:19.368Z,59.05
2019-02-20T15:27:28.618Z,59.15
2019-02-20T15:32:29.842Z,59.23
2019-02-20T15:37:34.212Z,58.92
2019-02-20T15:42:38.617Z,59.21
2019-02-20T15:47:43.088Z,59.21
2019-02-20T15:52:47.810Z,59.73
2019-02-20T15:57:52.243Z,60.14
2019-02-20T16:02:56.686Z,60.03
2019-02-20T16:08:01.135Z,61.11
2019-02-20T16:13:05.602Z,61.87
2019-02-20T16:18:10.344Z,62.96
2019-02-20T16:23:14.683Z,62.85
2019-02-20T16:28:19.144Z,63.18
2019-02-20T16:33:23.531Z,63.73
2019-02-20T16:38:27.922Z,64.25
2019-02-20T16:43:32.664Z,65.22
2019-02-20T16:48:37.077Z,65.27
2019-02-20T16:53:41.440Z,65.18
2019-02-20T16:58:45.866Z,66.05
2019-02-20T17:03:50.242Z,64.68
2019-02-20T17:08:54.975Z,64.99
2019-02-20T17:13:59.355Z,64.50
2019-02-20T17:19:03.719Z,63.62
2019-02-20T17:24:08.088Z,63.46
2019-02-20T17:29:12.443Z,63.05
2019-02-20T17:34:17.090Z,62.35
2019-02-20T17:39:21.438Z,64.25
2019-02-20T17:44:25.900Z,64.53
2019-02-20T17:49:30.840Z,63.75
2019-02-20T17:54:35.316Z,63.76
2019-02-20T17:59:39.653Z,62.72
2019-02-20T18:04:44.091Z,62.92
2019-02-20T18:09:48.594Z,62.93
2019-02-20T18:14:53.035Z,63.58
2019-02-20T18:19:57.406Z,64.18
2019-02-20T18:25:01.916Z,64.90
2019-02-20T18:30:09.877Z,65.27
2019-02-20T18:35:18.874Z,66.16
2019-02-20T18:40:23.486Z,66.33
2019-02-20T18:45:28.020Z,66.97
2019-02-20T18:50:32.534Z,67.25
2019-02-20T18:55:36.940Z,68.11
2019-02-20T19:00:41.578Z,67.87
2019-02-20T19:05:46.146Z,69.15
2019-02-20T19:10:54.244Z,70.13
2019-02-20T19:16:14.090Z,69.73
2019-02-20T19:21:33.540Z,72.95
2019-02-20T19:26:49.617Z,72.89
2019-02-20T19:32:13.383Z,72.14
2019-02-20T19:37:29.522Z,72.40
2019-02-20T19:42:43.163Z,72.35
2019-02-20T19:48:14.771Z,73.22
2019-02-20T19:53:22.548Z,73.69
2019-02-20T19:58:54.470Z,74.45
2019-02-20T20:04:06.976Z,73.99
2019-02-20T20:09:35.959Z,73.60
2019-02-20T20:14:46.369Z,73.58
2019-02-20T20:20:02.700Z,73.87
2019-02-20T20:25:25.472Z,74.38
2019-02-20T20:30:53.730Z,74.73
2019-02-20T20:36:17.407Z,74.26
2019-02-20T20:41:44.435Z,74.12
2019-02-20T20:46:54.920Z,75.03
2019-02-20T20:52:27.879Z,74.92
2019-02-20T20:57:52.054Z,75.82
2019-02-20T21:02:59.772Z,75.12
2019-02-20T21:08:07.450Z,75.11
2019-02-20T21:13:23.941Z,74.75
2019-02-20T21:18:55.663Z,74.39
2019-02-20T21:24:03.233Z,74.03
2019-02-20T21:29:28.975Z,72.05
2019-02-20T21:35:06.365Z,73.81
2019-02-20T21:40:28.974Z,73.71
2019-02-20T21:45:48.182Z,74.43
2019-02-20T21:51:10.348Z,74.67
2019-02-20T21:56:29.710Z,74.65
2019-02-20T22:01:46.025Z,75.30
2019-02-20T22:07:16.269Z,76.09
2019-02-20T22:12:50.570Z,76.09
2019-02-20T22:18:03.871Z,76.41
2019-02-20T22:23:11.389Z,76.07
2019-02-20T22:28:39.837Z,76.69
2019-02-20T22:33:59.605Z,76.54
2019-02-20T22:39:36.235Z,76.45
2019-02-20T22:45:15.713Z,76.20
2019-02-20T22:50:23.428Z,76.45
2019-02-20T22:55:39.976Z,76.53
2019-02-20T23:01:12.301Z,76.72
2019-02-20T23:06:33.624Z,76.38
2019-02-20T23:12:02.039Z,76.92
2019-02-20T23:17:06.603Z,77.07
2019-02-20T23:22:10.959Z,76.92
2019-02-20T23:27:15.347Z,77.84
2019-02-20T23:32:19.705Z,77.92
2019-02-20T23:37:24.085Z,78.21
2019-02-20T23:42:28.462Z,77.91
2019-02-20T23:47:32.861Z,78.35
2019-02-20T23:52:37.231Z,78.06
2019-02-20T23:57:41.640Z,77.88
